createdAt,value
2022-11-11T00:01:09.659Z,8.84
2022-11-11T00:03:57.030Z,8.83
2022-11-11T00:06:43.494Z,8.91
2022-11-11T00:09:30.383Z,8.74
2022-11-11T00:12:18.928Z,8.93
2022-11-11T00:15:07.992Z,8.93
2022-11-11T00:18:11.997Z,8.77
2022-11-11T00:21:17.759Z,9.01
2022-11-11T00:24:22.212Z,9.13
2022-11-11T00:27:09.297Z,9.04
2022-11-11T00:29:56.029Z,8.34
2022-11-11T00:32:43.560Z,8.25
2022-11-11T00:35:47.023Z,8.65
2022-11-11T00:38:49.466Z,8.38
2022-11-11T00:41:36.086Z,8.68
2022-11-11T00:44:22.403Z,8.87
2022-11-11T00:47:27.026Z,9.01
2022-11-11T00:50:34.320Z,9.19
2022-11-11T00:53:26.663Z,8.58
2022-11-11T00:56:13.936Z,8.39
2022-11-11T00:59:00.785Z,8.12
2022-11-11T01:01:47.380Z,8.28
2022-11-11T01:04:33.969Z,8.18
2022-11-11T01:07:21.548Z,7.97
2022-11-11T01:10:08.200Z,7.74
2022-11-11T01:13:11.732Z,7.40
2022-11-11T01:16:01.533Z,7.33
2022-11-11T01:18:48.529Z,7.37
2022-11-11T01:21:34.800Z,7.59
2022-11-11T01:24:22.790Z,7.86
2022-11-11T01:27:09.095Z,8.08
2022-11-11T01:29:55.308Z,8.00
2022-11-11T01:32:41.603Z,7.93
2022-11-11T01:35:28.634Z,7.69
2022-11-11T01:38:15.188Z,7.65
2022-11-11T01:41:24.413Z,7.87
2022-11-11T01:44:21.115Z,7.93
2022-11-11T01:47:08.653Z,7.52
2022-11-11T01:49:58.835Z,7.41
2022-11-11T01:52:46.230Z,7.46
2022-11-11T01:55:33.384Z,7.61
2022-11-11T01:58:22.704Z,7.42
2022-11-11T02:01:09.627Z,7.48
2022-11-11T02:04:16.805Z,7.33
2022-11-11T02:07:07.560Z,7.28
2022-11-11T02:09:55.216Z,7.73
2022-11-11T02:12:59.052Z,7.62
2022-11-11T02:15:47.103Z,7.29
2022-11-11T02:18:35.277Z,7.50
2022-11-11T02:21:26.679Z,7.53
2022-11-11T02:24:19.173Z,8.06
2022-11-11T02:27:09.519Z,7.88
2022-11-11T02:29:57.783Z,7.74
2022-11-11T02:32:45.468Z,7.61
2022-11-11T02:35:33.800Z,6.94
2022-11-11T02:38:20.159Z,7.12
2022-11-11T02:41:25.034Z,7.10
2022-11-11T02:44:11.309Z,6.81
2022-11-11T02:46:58.210Z,7.01
2022-11-11T02:49:44.850Z,7.15
2022-11-11T02:52:31.070Z,7.23
2022-11-11T02:55:17.845Z,7.12
2022-11-11T02:58:05.826Z,7.06
2022-11-11T03:00:52.437Z,7.01
2022-11-11T03:03:39.166Z,6.99
2022-11-11T03:06:25.742Z,7.00
2022-11-11T03:09:12.052Z,6.88
2022-11-11T03:11:58.775Z,7.21
2022-11-11T03:14:47.036Z,7.15
2022-11-11T03:17:41.427Z,6.94
2022-11-11T03:20:45.281Z,7.02
2022-11-11T03:23:31.707Z,6.98
2022-11-11T03:26:17.748Z,6.71
2022-11-11T03:29:04.104Z,6.73
2022-11-11T03:31:51.681Z,7.04
2022-11-11T03:34:37.831Z,6.93
2022-11-11T03:37:41.449Z,6.66
2022-11-11T03:40:28.005Z,6.93
2022-11-11T03:43:15.600Z,7.16
2022-11-11T03:46:03.890Z,7.32
2022-11-11T03:48:51.644Z,7.18
2022-11-11T03:51:37.929Z,7.25
2022-11-11T03:54:24.160Z,6.87
2022-11-11T03:57:27.856Z,7.45
2022-11-11T04:00:16.954Z,7.64
2022-11-11T04:03:22.782Z,7.29
2022-11-11T04:06:28.835Z,7.13
2022-11-11T04:09:33.083Z,7.43
2022-11-11T04:12:19.561Z,6.98
2022-11-11T04:15:38.125Z,6.53
2022-11-11T04:18:44.480Z,6.36
2022-11-11T04:21:43.232Z,6.74
2022-11-11T04:24:46.847Z,6.80
2022-11-11T04:27:33.335Z,7.01
2022-11-11T04:30:18.811Z,7.07
2022-11-11T04:33:05.416Z,6.92
2022-11-11T04:35:52.008Z,7.12
2022-11-11T04:38:57.070Z,7.16
2022-11-11T04:42:02.145Z,7.76
2022-11-11T04:45:07.377Z,7.72
2022-11-11T04:47:55.386Z,7.67
2022-11-11T04:50:42.976Z,7.67
2022-11-11T04:53:30.487Z,7.58
2022-11-11T04:56:35.338Z,7.49
2022-11-11T04:59:21.879Z,7.52
2022-11-11T05:02:26.498Z,7.74
2022-11-11T05:05:13.333Z,8.02
2022-11-11T05:08:16.891Z,8.36
2022-11-11T05:11:03.253Z,8.42
2022-11-11T05:14:08.586Z,8.29
2022-11-11T05:17:13.965Z,8.08
2022-11-11T05:20:17.777Z,7.61
2022-11-11T05:23:04.197Z,7.47
2022-11-11T05:25:49.387Z,7.28
2022-11-11T05:28:35.939Z,6.99
2022-11-11T05:31:23.429Z,6.50
2022-11-11T05:34:09.578Z,6.28
2022-11-11T05:36:55.934Z,6.45
2022-11-11T05:39:42.672Z,6.81
2022-11-11T05:42:29.152Z,7.05
2022-11-11T05:45:15.785Z,7.01
2022-11-11T05:48:03.919Z,6.80
2022-11-11T05:50:50.402Z,6.49
2022-11-11T05:53:36.671Z,6.97
2022-11-11T05:56:22.687Z,7.42
2022-11-11T05:59:09.120Z,7.56
2022-11-11T06:01:55.676Z,7.56
2022-11-11T06:04:43.179Z,7.67
2022-11-11T06:07:29.186Z,7.69
2022-11-11T06:10:33.409Z,7.73
2022-11-11T06:13:19.790Z,7.01
2022-11-11T06:16:06.861Z,7.32
2022-11-11T06:18:53.587Z,7.63
2022-11-11T06:22:00.653Z,6.25
2022-11-11T06:25:07.076Z,6.63
2022-11-11T06:27:53.482Z,7.42
2022-11-11T06:30:50.128Z,7.84
2022-11-11T06:33:37.980Z,8.08
2022-11-11T06:36:24.286Z,8.05
2022-11-11T06:39:12.086Z,8.01
2022-11-11T06:41:59.444Z,7.81
2022-11-11T06:44:45.820Z,7.76
2022-11-11T06:47:32.156Z,6.23
2022-11-11T06:50:18.838Z,4.82
2022-11-11T06:53:06.120Z,5.23
2022-11-11T06:55:54.287Z,5.95
2022-11-11T06:58:40.816Z,5.66
2022-11-11T07:01:27.003Z,6.03
2022-11-11T07:04:13.717Z,6.45
2022-11-11T07:07:00.171Z,6.80
2022-11-11T07:09:46.315Z,7.14
2022-11-11T07:12:33.860Z,7.14
2022-11-11T07:15:20.158Z,7.33
2022-11-11T07:18:07.070Z,6.79
2022-11-11T07:20:53.519Z,5.94
2022-11-11T07:23:39.718Z,6.46
2022-11-11T07:26:25.814Z,6.98
2022-11-11T07:29:15.189Z,7.61
2022-11-11T07:32:01.640Z,7.68
2022-11-11T07:34:51.400Z,7.92
2022-11-11T07:37:38.332Z,8.19
2022-11-11T07:40:24.834Z,8.49
2022-11-11T07:43:11.107Z,8.38
2022-11-11T07:45:58.651Z,8.26
2022-11-11T07:48:44.896Z,8.34
2022-11-11T07:51:31.154Z,8.54
2022-11-11T07:54:17.472Z,8.39
2022-11-11T07:57:03.620Z,8.44
2022-11-11T07:59:52.786Z,8.82
2022-11-11T08:02:40.530Z,8.58
2022-11-11T08:05:26.700Z,8.29
2022-11-11T08:08:12.974Z,8.51
2022-11-11T08:10:59.363Z,8.90
2022-11-11T08:13:44.441Z,9.28
2022-11-11T08:16:30.858Z,9.53
2022-11-11T08:19:18.277Z,9.53
2022-11-11T08:22:05.243Z,9.69
2022-11-11T08:25:07.577Z,9.47
2022-11-11T08:27:58.242Z,9.80
2022-11-11T08:30:44.762Z,9.79
2022-11-11T08:33:33.762Z,9.91
2022-11-11T08:36:23.763Z,10.45
2022-11-11T08:39:11.863Z,10.65
2022-11-11T08:41:58.038Z,11.21
2022-11-11T08:44:44.892Z,11.86
2022-11-11T08:47:31.468Z,11.83
2022-11-11T08:50:18.070Z,11.75
2022-11-11T08:53:07.396Z,9.85
2022-11-11T08:55:53.566Z,12.00
2022-11-11T08:58:39.888Z,13.26
2022-11-11T09:01:26.022Z,13.88
2022-11-11T09:04:42.591Z,14.17
2022-11-11T09:07:18.547Z,13.96
2022-11-11T09:10:07.620Z,14.25
2022-11-11T09:12:57.500Z,14.36
2022-11-11T09:15:43.777Z,14.44
2022-11-11T09:18:33.571Z,14.60
2022-11-11T09:21:19.961Z,14.85
2022-11-11T09:24:06.827Z,15.03
2022-11-11T09:26:54.813Z,15.47
2022-11-11T09:29:41.373Z,15.41
2022-11-11T09:32:27.412Z,15.48
2022-11-11T09:35:13.702Z,15.65
2022-11-11T09:38:01.559Z,15.91
2022-11-11T09:40:55.706Z,15.41
2022-11-11T09:43:53.332Z,16.07
2022-11-11T09:46:47.949Z,13.78
2022-11-11T09:49:39.517Z,15.87
2022-11-11T09:52:33.008Z,16.43
2022-11-11T09:55:23.917Z,16.59
2022-11-11T09:58:15.324Z,16.56
2022-11-11T10:01:09.555Z,16.93
2022-11-11T10:04:05.075Z,17.15
2022-11-11T10:06:57.957Z,17.19
2022-11-11T10:09:53.026Z,17.54
2022-11-11T10:12:47.046Z,17.87
2022-11-11T10:15:41.894Z,18.25
2022-11-11T10:18:45.783Z,18.31
2022-11-11T10:21:58.333Z,17.42
2022-11-11T10:24:51.302Z,17.91
2022-11-11T10:27:38.207Z,18.26
2022-11-11T10:30:31.568Z,18.53
2022-11-11T10:33:24.462Z,18.28
2022-11-11T10:36:18.330Z,17.24
2022-11-11T10:39:06.427Z,19.12
2022-11-11T10:41:53.442Z,18.41
2022-11-11T10:44:39.840Z,19.58
2022-11-11T10:47:40.594Z,18.78
2022-11-11T10:50:33.018Z,19.88
2022-11-11T10:53:26.865Z,20.38
2022-11-11T10:56:21.245Z,20.75
2022-11-11T10:59:17.283Z,20.05
2022-11-11T11:02:10.710Z,19.92
2022-11-11T11:05:03.084Z,20.29
2022-11-11T11:07:52.069Z,20.31
2022-11-11T11:10:44.306Z,20.19
2022-11-11T11:13:37.443Z,21.08
2022-11-11T11:16:26.672Z,21.49
2022-11-11T11:19:18.442Z,21.34
2022-11-11T11:22:05.071Z,20.98
2022-11-11T11:24:51.675Z,21.03
2022-11-11T11:27:39.168Z,20.93
2022-11-11T11:30:27.206Z,21.39
2022-11-11T11:33:13.587Z,20.85
2022-11-11T11:36:16.732Z,20.70
2022-11-11T11:39:02.980Z,20.14
2022-11-11T11:41:52.151Z,19.92
2022-11-11T11:44:40.491Z,20.53
2022-11-11T11:47:42.514Z,22.03
2022-11-11T11:50:41.994Z,22.62
2022-11-11T11:53:54.740Z,23.35
2022-11-11T11:56:45.239Z,23.87
2022-11-11T11:59:39.883Z,24.66
2022-11-11T12:02:57.954Z,25.29
2022-11-11T12:05:46.460Z,25.08
2022-11-11T12:08:48.001Z,23.55
2022-11-11T12:11:43.027Z,24.22
2022-11-11T12:14:47.500Z,23.32
2022-11-11T12:17:45.795Z,23.60
2022-11-11T12:20:42.425Z,23.01
2022-11-11T12:23:52.389Z,23.96
2022-11-11T12:26:47.234Z,23.09
2022-11-11T12:29:44.977Z,21.98
2022-11-11T12:33:00.227Z,22.95
2022-11-11T12:36:02.148Z,23.17
2022-11-11T12:38:58.240Z,22.50
2022-11-11T12:41:56.256Z,21.87
2022-11-11T12:44:53.992Z,21.35
2022-11-11T12:47:53.121Z,21.38
2022-11-11T12:50:44.833Z,20.99
2022-11-11T12:53:36.832Z,20.70
2022-11-11T12:56:32.307Z,20.43
2022-11-11T12:59:25.756Z,19.31
2022-11-11T13:02:31.798Z,19.38
2022-11-11T13:05:23.927Z,19.49
2022-11-11T13:08:36.527Z,18.68
2022-11-11T13:11:34.160Z,18.72
2022-11-11T13:14:33.166Z,18.94
2022-11-11T13:17:19.707Z,18.93
2022-11-11T13:20:18.368Z,18.55
2022-11-11T13:23:09.848Z,18.27
2022-11-11T13:26:02.240Z,18.47
2022-11-11T13:28:50.955Z,19.45
2022-11-11T13:31:40.180Z,19.54
2022-11-11T13:34:28.560Z,19.63
2022-11-11T13:37:24.267Z,20.06
2022-11-11T13:40:31.444Z,19.96
2022-11-11T13:43:21.251Z,20.25
2022-11-11T13:46:13.336Z,20.37
2022-11-11T13:49:01.085Z,20.13
2022-11-11T13:51:47.402Z,19.83
2022-11-11T13:54:36.920Z,19.13
2022-11-11T13:57:28.621Z,19.15
2022-11-11T14:00:27.176Z,18.92
2022-11-11T14:03:32.579Z,18.93
2022-11-11T14:06:51.980Z,19.02
2022-11-11T14:10:00.289Z,19.00
2022-11-11T14:12:49.483Z,19.15
2022-11-11T14:15:42.400Z,19.78
2022-11-11T14:18:40.301Z,20.23
2022-11-11T14:21:51.319Z,20.46
2022-11-11T14:24:41.422Z,20.72
2022-11-11T14:27:30.271Z,21.00
2022-11-11T14:30:40.503Z,21.40
2022-11-11T14:33:43.823Z,20.08
2022-11-11T14:36:38.833Z,20.60
2022-11-11T14:39:39.488Z,20.80
2022-11-11T14:42:47.710Z,20.89
2022-11-11T14:46:03.558Z,19.80
2022-11-11T14:48:59.278Z,19.35
2022-11-11T14:51:54.889Z,19.05
2022-11-11T14:54:56.093Z,18.69
2022-11-11T14:57:46.240Z,18.65
2022-11-11T15:00:47.196Z,18.27
2022-11-11T15:03:39.196Z,17.71
2022-11-11T15:06:30.600Z,17.50
2022-11-11T15:09:36.752Z,17.06
2022-11-11T15:12:36.893Z,16.89
2022-11-11T15:15:27.196Z,16.76
2022-11-11T15:18:30.168Z,16.90
2022-11-11T15:21:26.466Z,15.89
2022-11-11T15:24:25.530Z,16.25
2022-11-11T15:27:25.269Z,15.90
2022-11-11T15:30:14.223Z,15.63
2022-11-11T15:33:07.246Z,15.46
2022-11-11T15:36:05.509Z,15.22
2022-11-11T15:39:00.146Z,15.24
2022-11-11T15:41:50.521Z,14.95
2022-11-11T15:44:38.065Z,15.13
2022-11-11T15:47:26.413Z,15.30
2022-11-11T15:50:19.811Z,15.16
2022-11-11T15:53:08.017Z,14.74
2022-11-11T15:55:57.753Z,14.58
2022-11-11T15:58:43.944Z,14.61
2022-11-11T16:01:30.578Z,14.76
2022-11-11T16:04:53.314Z,14.28
2022-11-11T16:07:31.254Z,14.46
2022-11-11T16:10:22.560Z,14.26
2022-11-11T16:13:17.042Z,14.46
2022-11-11T16:16:06.100Z,14.51
2022-11-11T16:18:57.048Z,14.52
2022-11-11T16:21:48.443Z,14.54
2022-11-11T16:24:37.232Z,14.49
2022-11-11T16:27:29.286Z,13.84
2022-11-11T16:30:19.050Z,13.26
2022-11-11T16:33:06.282Z,13.50
2022-11-11T16:35:52.778Z,13.72
2022-11-11T16:38:39.848Z,13.67
2022-11-11T16:41:33.053Z,13.32
2022-11-11T16:44:40.442Z,12.79
2022-11-11T16:47:47.306Z,13.16
2022-11-11T16:50:33.846Z,12.95
2022-11-11T16:53:30.243Z,11.32
2022-11-11T16:56:22.279Z,10.63
2022-11-11T16:59:12.540Z,10.45
2022-11-11T17:01:58.715Z,10.41
2022-11-11T17:04:50.792Z,10.61
2022-11-11T17:07:39.348Z,11.08
2022-11-11T17:10:29.015Z,10.63
2022-11-11T17:13:15.256Z,10.26
2022-11-11T17:16:04.247Z,10.29
2022-11-11T17:18:50.770Z,10.79
2022-11-11T17:21:38.534Z,10.46
2022-11-11T17:24:24.699Z,10.70
2022-11-11T17:27:10.876Z,10.91
2022-11-11T17:29:57.024Z,10.83
2022-11-11T17:32:43.380Z,11.09
2022-11-11T17:35:29.584Z,10.63
2022-11-11T17:38:16.976Z,10.54
2022-11-11T17:41:03.387Z,10.96
2022-11-11T17:43:49.409Z,11.73
2022-11-11T17:46:35.663Z,12.09
2022-11-11T17:49:50.189Z,12.33
2022-11-11T17:52:30.754Z,12.51
2022-11-11T17:55:18.467Z,12.50
2022-11-11T17:58:04.921Z,12.27
2022-11-11T18:00:51.098Z,12.00
2022-11-11T18:03:37.617Z,11.96
2022-11-11T18:06:24.151Z,11.75
2022-11-11T18:09:10.363Z,11.69
2022-11-11T18:11:57.777Z,11.02
2022-11-11T18:14:44.000Z,10.53
2022-11-11T18:17:30.580Z,10.55
2022-11-11T18:20:16.834Z,10.18
2022-11-11T18:23:03.190Z,9.82
2022-11-11T18:25:49.383Z,9.80
2022-11-11T18:28:38.728Z,10.22
2022-11-11T18:31:25.280Z,10.15
2022-11-11T18:34:11.760Z,10.74
2022-11-11T18:36:57.796Z,10.88
2022-11-11T18:39:44.077Z,11.05
2022-11-11T18:42:34.133Z,10.54
2022-11-11T18:45:22.571Z,11.07
2022-11-11T18:48:08.922Z,11.38
2022-11-11T18:50:55.647Z,11.56
2022-11-11T18:53:42.149Z,11.70
2022-11-11T18:56:30.394Z,11.77
2022-11-11T18:59:17.125Z,10.12
2022-11-11T19:02:05.113Z,9.63
2022-11-11T19:04:51.169Z,8.85
2022-11-11T19:07:37.353Z,8.51
2022-11-11T19:10:25.228Z,9.08
2022-11-11T19:13:11.497Z,9.93
2022-11-11T19:15:58.222Z,10.39
2022-11-11T19:18:45.955Z,9.99
2022-11-11T19:21:33.518Z,10.31
2022-11-11T19:24:19.926Z,10.77
2022-11-11T19:27:06.256Z,11.03
2022-11-11T19:29:52.430Z,11.19
2022-11-11T19:32:38.602Z,11.30
2022-11-11T19:35:26.216Z,11.35
2022-11-11T19:38:12.458Z,11.41
2022-11-11T19:40:59.085Z,11.39
2022-11-11T19:43:45.626Z,11.42
2022-11-11T19:46:33.975Z,11.37
2022-11-11T19:49:20.366Z,11.26
2022-11-11T19:52:08.186Z,11.01
2022-11-11T19:54:54.528Z,10.48
2022-11-11T19:57:40.721Z,10.84
2022-11-11T20:00:27.006Z,10.90
2022-11-11T20:03:13.336Z,10.39
2022-11-11T20:05:59.455Z,10.74
2022-11-11T20:08:47.088Z,10.87
2022-11-11T20:11:33.184Z,10.91
2022-11-11T20:14:19.442Z,10.75
2022-11-11T20:17:05.574Z,9.06
2022-11-11T20:19:51.738Z,8.59
2022-11-11T20:22:37.841Z,9.31
2022-11-11T20:25:25.430Z,9.47
2022-11-11T20:28:11.567Z,10.03
2022-11-11T20:30:57.858Z,9.99
2022-11-11T20:33:44.370Z,8.37
2022-11-11T20:36:31.895Z,9.17
2022-11-11T20:39:18.014Z,9.50
2022-11-11T20:42:06.463Z,9.19
2022-11-11T20:44:52.644Z,9.70
2022-11-11T20:47:38.746Z,10.18
2022-11-11T20:50:25.045Z,10.26
2022-11-11T20:53:11.502Z,10.39
2022-11-11T20:56:01.314Z,10.14
2022-11-11T20:58:49.530Z,10.32
2022-11-11T21:01:35.705Z,10.04
2022-11-11T21:04:22.283Z,10.16
2022-11-11T21:07:08.601Z,10.27
2022-11-11T21:09:54.747Z,10.32
2022-11-11T21:12:40.844Z,10.10
2022-11-11T21:15:28.467Z,10.23
2022-11-11T21:18:15.230Z,10.05
2022-11-11T21:21:06.669Z,10.12
2022-11-11T21:23:56.196Z,10.07
2022-11-11T21:26:42.226Z,8.44
2022-11-11T21:29:28.502Z,7.16
2022-11-11T21:32:15.897Z,7.89
2022-11-11T21:35:02.790Z,8.32
2022-11-11T21:37:51.777Z,8.48
2022-11-11T21:40:38.304Z,8.83
2022-11-11T21:43:24.523Z,8.28
2022-11-11T21:46:12.311Z,7.73
2022-11-11T21:48:59.866Z,7.37
2022-11-11T21:51:46.354Z,8.61
2022-11-11T21:54:32.504Z,8.85
2022-11-11T21:57:18.947Z,9.31
2022-11-11T22:00:06.371Z,9.40
2022-11-11T22:02:52.513Z,9.06
2022-11-11T22:05:40.039Z,9.35
2022-11-11T22:08:26.433Z,9.70
2022-11-11T22:11:15.028Z,9.94
2022-11-11T22:14:03.068Z,9.24
2022-11-11T22:16:49.795Z,9.19
2022-11-11T22:19:35.904Z,8.43
2022-11-11T22:22:23.584Z,8.03
2022-11-11T22:25:10.152Z,7.58
2022-11-11T22:27:56.453Z,7.07
2022-11-11T22:30:42.710Z,6.93
2022-11-11T22:33:29.210Z,6.98
2022-11-11T22:36:18.107Z,7.03
2022-11-11T22:39:06.680Z,6.95
2022-11-11T22:41:52.718Z,6.89
2022-11-11T22:44:38.811Z,6.60
2022-11-11T22:47:25.336Z,6.39
2022-11-11T22:50:11.612Z,6.95
2022-11-11T22:52:57.744Z,7.04
2022-11-11T22:55:45.408Z,6.94
2022-11-11T22:58:32.298Z,7.24
2022-11-11T23:01:27.730Z,6.42
2022-11-11T23:04:15.987Z,6.24
2022-11-11T23:07:02.204Z,5.95
2022-11-11T23:09:48.256Z,6.42
2022-11-11T23:12:35.605Z,6.03
2022-11-11T23:15:21.682Z,5.86
2022-11-11T23:18:07.950Z,6.66
2022-11-11T23:20:55.926Z,7.18
2022-11-11T23:23:42.706Z,7.86
2022-11-11T23:26:30.659Z,8.30
2022-11-11T23:29:18.352Z,8.44
2022-11-11T23:32:04.878Z,8.76
2022-11-11T23:34:51.128Z,8.61
2022-11-11T23:37:38.941Z,7.96
2022-11-11T23:40:25.358Z,8.23
2022-11-11T23:43:11.575Z,8.34
2022-11-11T23:45:59.441Z,8.44
2022-11-11T23:48:46.064Z,8.45
2022-11-11T23:51:32.098Z,8.42
2022-11-11T23:54:18.067Z,8.83
2022-11-11T23:57:04.582Z,8.78
2022-11-11T23:59:50.606Z,8.74
